Time;durP1;ratioP1;P1;durP2;ratioP2;P2;SDS_P1;SDS_P2;PMS_P1;PMS_P2;Temp;Humidity;BMP_temperature;BMP_pressure;BME280_temperature;BME280_humidity;BME280_pressure;Samples;Min_cycle;Max_cycle;Signal;HPM_P1;HPM_P2
2021/07/02 00:00:38;;;;;;;15.93;7.37;;;;;;;17.68;67.80;98516.84;125682;1092;103009;-75
2021/07/02 00:03:20;;;;;;;13.50;7.70;;;;;;;17.67;67.62;98517.86;126287;1092;102935;-76
2021/07/02 00:05:48;;;;;;;17.70;7.40;;;;;;;17.66;67.63;98521.55;125664;1093;102907;-75
2021/07/02 00:08:16;;;;;;;13.20;7.47;;;;;;;17.61;68.07;98521.23;125751;1092;103441;-75
2021/07/02 00:10:44;;;;;;;14.67;7.27;;;;;;;17.61;67.88;98524.73;125690;1093;103000;-75
2021/07/02 00:13:13;;;;;;;16.90;7.10;;;;;;;17.60;68.26;98520.37;125611;1093;102916;-75
2021/07/02 00:15:44;;;;;;;15.07;6.80;;;;;;;17.58;68.20;98526.94;125934;1092;103076;-76
2021/07/02 00:18:12;;;;;;;15.63;6.63;;;;;;;17.58;67.87;98524.25;125642;1092;103008;-76
2021/07/02 00:20:41;;;;;;;11.70;6.10;;;;;;;17.55;68.15;98520.03;125714;1093;103132;-75
2021/07/02 00:23:09;;;;;;;13.83;6.80;;;;;;;17.53;68.11;98524.74;125702;1092;103012;-74
2021/07/02 00:25:38;;;;;;;13.73;6.13;;;;;;;17.51;68.11;98521.41;125667;1092;103164;-74
2021/07/02 00:28:08;;;;;;;12.83;6.00;;;;;;;17.49;68.01;98518.05;125718;1093;103041;-74
2021/07/02 00:30:37;;;;;;;14.47;7.57;;;;;;;17.49;68.47;98520.74;125754;1091;103043;-76
2021/07/02 00:33:06;;;;;;;13.83;6.33;;;;;;;17.45;68.18;98514.84;125673;1093;102935;-74
2021/07/02 00:35:34;;;;;;;12.33;6.50;;;;;;;17.47;68.47;98518.20;125943;1092;104376;-75
2021/07/02 00:38:03;;;;;;;10.33;5.60;;;;;;;17.45;68.12;98514.02;125610;1093;102984;-74
2021/07/02 00:40:31;;;;;;;13.73;5.97;;;;;;;17.43;68.13;98506.11;125756;1093;103068;-74
2021/07/02 00:43:00;;;;;;;13.07;5.67;;;;;;;17.43;68.12;98502.59;125844;1093;103432;-76
2021/07/02 00:45:28;;;;;;;15.43;6.23;;;;;;;17.41;68.53;98505.44;125675;1093;102916;-74
2021/07/02 00:47:57;;;;;;;11.30;6.07;;;;;;;17.39;68.42;98504.77;125669;1093;103012;-75
2021/07/02 00:50:26;;;;;;;12.23;5.77;;;;;;;17.37;68.44;98496.89;125687;1093;103016;-75
2021/07/02 00:52:56;;;;;;;12.77;6.83;;;;;;;17.36;68.23;98502.41;125663;1093;103058;-74
2021/07/02 00:55:24;;;;;;;15.63;6.33;;;;;;;17.36;68.43;98497.04;126287;1093;102888;-74
2021/07/02 00:57:53;;;;;;;14.07;5.93;;;;;;;17.35;68.72;98484.61;125692;1093;102913;-74
2021/07/02 01:00:21;;;;;;;12.53;5.67;;;;;;;17.35;68.85;98489.98;125635;1093;102990;-74
2021/07/02 01:02:50;;;;;;;11.70;5.80;;;;;;;17.30;68.43;98484.30;125968;1092;103009;-75
2021/07/02 01:05:21;;;;;;;10.63;5.60;;;;;;;17.26;68.66;98476.58;125896;1093;102932;-76
2021/07/02 01:07:49;;;;;;;12.00;5.73;;;;;;;17.25;68.55;98479.42;125634;1093;103055;-75
2021/07/02 01:10:22;;;;;;;10.80;5.30;;;;;;;17.24;68.91;98485.80;125698;1093;102911;-74
2021/07/02 01:12:50;;;;;;;12.57;5.93;;;;;;;17.22;68.62;98485.13;125675;1093;103029;-74
2021/07/02 01:15:25;;;;;;;13.70;5.97;;;;;;;17.18;68.49;98481.09;125636;1093;102903;-74
2021/07/02 01:17:54;;;;;;;12.87;5.47;;;;;;;17.17;68.85;98484.79;125646;1092;102934;-75
2021/07/02 01:20:22;;;;;;;14.67;6.10;;;;;;;17.16;68.66;98483.97;125655;1093;102909;-74
2021/07/02 01:22:51;;;;;;;14.30;6.57;;;;;;;17.18;68.59;98478.41;127374;1092;100632;-74
2021/07/02 01:25:21;;;;;;;13.37;6.13;;;;;;;17.19;68.66;98483.63;125786;1093;102991;-74
2021/07/02 01:27:52;;;;;;;13.70;6.03;;;;;;;17.21;68.92;98480.76;125683;1093;103147;-73
2021/07/02 01:30:20;;;;;;;12.97;6.73;;;;;;;17.22;68.92;98479.75;125732;1093;102940;-74
2021/07/02 01:32:52;;;;;;;13.20;6.53;;;;;;;17.22;68.60;98472.55;125747;1093;102948;-73
2021/07/02 01:35:21;;;;;;;15.13;6.87;;;;;;;17.22;69.05;98474.38;125833;1092;103005;-75
2021/07/02 01:37:49;;;;;;;11.03;6.03;;;;;;;17.21;68.66;98481.61;125723;1093;102991;-75
2021/07/02 01:40:18;;;;;;;14.13;6.03;;;;;;;17.19;68.70;98472.03;125640;1093;103153;-74
2021/07/02 01:42:49;;;;;;;14.80;7.53;;;;;;;17.17;68.68;98463.29;125715;1093;102900;-74
2021/07/02 01:45:17;;;;;;;17.40;7.80;;;;;;;17.15;69.02;98459.94;125641;1093;102917;-75
2021/07/02 01:47:46;;;;;;;17.80;7.70;;;;;;;17.11;68.83;98459.45;125656;1093;103093;-75
2021/07/02 01:50:14;;;;;;;15.70;7.00;;;;;;;17.12;68.59;98466.50;125678;1093;102936;-75
2021/07/02 01:52:42;;;;;;;14.30;7.50;;;;;;;17.11;69.09;98467.50;125652;1093;103084;-74
2021/07/02 01:55:11;;;;;;;13.63;6.87;;;;;;;17.09;68.72;98467.69;125786;1092;102913;-75
2021/07/02 01:57:39;;;;;;;16.23;7.93;;;;;;;17.09;69.12;98462.31;125726;1093;103088;-74
2021/07/02 02:00:11;;;;;;;16.97;7.97;;;;;;;17.08;69.29;98466.01;125750;1093;103569;-73
2021/07/02 02:02:39;;;;;;;18.27;8.50;;;;;;;17.08;69.02;98478.59;125678;1093;103010;-74
2021/07/02 02:05:13;;;;;;;20.20;8.63;;;;;;;17.06;69.34;98477.91;125702;1093;103025;-73
2021/07/02 02:07:42;;;;;;;23.63;9.27;;;;;;;17.04;69.19;98472.72;125694;1092;103035;-74
2021/07/02 02:10:10;;;;;;;20.30;8.00;;;;;;;17.02;69.21;98474.73;125635;1093;102988;-74
2021/07/02 02:12:39;;;;;;;16.90;8.23;;;;;;;17.01;69.31;98480.27;125661;1093;102948;-75
2021/07/02 02:15:11;;;;;;;15.15;7.30;;;;;;;16.99;69.33;98485.81;125677;1093;103056;-74
2021/07/02 02:17:39;;;;;;;18.50;7.93;;;;;;;17.00;69.31;98482.13;125845;1093;103190;-74
2021/07/02 02:20:11;;;;;;;15.47;8.10;;;;;;;16.99;69.33;98480.44;125637;1093;103009;-75
2021/07/02 02:22:43;;;;;;;18.70;7.43;;;;;;;16.97;69.38;98479.77;125702;1092;102936;-74
2021/07/02 02:25:13;;;;;;;15.43;7.17;;;;;;;16.96;69.31;98486.97;125625;1093;102980;-73
2021/07/02 02:27:41;;;;;;;16.70;7.70;;;;;;;16.96;69.06;98486.14;125836;1093;103120;-75
2021/07/02 02:30:10;;;;;;;15.07;7.03;;;;;;;16.95;69.27;98485.26;125634;1093;103172;-76
2021/07/02 02:32:40;;;;;;;18.07;7.73;;;;;;;16.92;69.25;98487.45;125663;1091;103034;-75
2021/07/02 02:35:13;;;;;;;17.83;8.20;;;;;;;16.88;69.22;98481.59;125627;1093;103087;-76
2021/07/02 02:37:43;;;;;;;16.83;8.33;;;;;;;16.85;69.27;98484.60;125679;1093;103061;-76
2021/07/02 02:40:12;;;;;;;16.83;8.30;;;;;;;16.84;69.49;98487.44;125675;1093;103029;-75
2021/07/02 02:42:41;;;;;;;16.60;8.30;;;;;;;16.84;69.50;98487.44;125667;1093;103023;-75
2021/07/02 02:45:12;;;;;;;17.00;7.90;;;;;;;16.83;69.35;98491.98;125759;1092;102903;-74
2021/07/02 02:47:40;;;;;;;18.17;8.13;;;;;;;16.81;69.44;98484.08;125755;1093;103421;-75
2021/07/02 02:50:14;;;;;;;15.73;7.13;;;;;;;16.83;69.46;98486.61;125758;1093;102995;-76
2021/07/02 02:52:42;;;;;;;17.90;7.87;;;;;;;16.85;69.18;98494.49;125707;1093;102908;-74
2021/07/02 02:55:11;;;;;;;16.23;7.67;;;;;;;16.84;69.12;98496.35;125660;1092;102973;-74
2021/07/02 02:57:39;;;;;;;16.43;7.27;;;;;;;16.84;69.58;98498.18;125694;1091;102984;-75
2021/07/02 03:00:11;;;;;;;15.47;7.03;;;;;;;16.85;69.50;98514.15;125686;1093;102939;-75
2021/07/02 03:02:42;;;;;;;17.37;7.40;;;;;;;16.87;69.17;98497.85;125702;1093;103058;-74
2021/07/02 03:05:33;;;;;;;15.17;7.47;;;;;;;16.90;69.57;98505.58;125697;1093;103396;-75
2021/07/02 03:08:05;;;;;;;17.63;7.33;;;;;;;16.91;69.32;98493.83;125680;1093;103010;-74
2021/07/02 03:10:36;;;;;;;15.40;6.97;;;;;;;16.91;69.43;98502.71;125706;1093;103007;-75
2021/07/02 03:13:04;;;;;;;14.10;6.30;;;;;;;16.91;69.61;98496.52;125631;1093;102913;-74
2021/07/02 03:15:35;;;;;;;15.23;7.10;;;;;;;16.89;69.48;98490.47;126130;1093;103065;-74
2021/07/02 03:18:04;;;;;;;17.73;7.53;;;;;;;16.88;69.44;98492.33;125669;1093;103071;-73
2021/07/02 03:20:33;;;;;;;17.20;7.00;;;;;;;16.87;69.44;98495.16;125687;1091;103019;-74
2021/07/02 03:23:01;;;;;;;17.33;7.27;;;;;;;16.85;69.28;98499.86;126422;1093;102888;-74
2021/07/02 03:25:32;;;;;;;16.70;7.43;;;;;;;16.86;69.79;98498.86;125655;1093;103004;-75
2021/07/02 03:28:01;;;;;;;16.87;7.67;;;;;;;16.87;69.78;98481.73;125724;1093;103026;-74
2021/07/02 03:30:32;;;;;;;17.23;8.00;;;;;;;16.88;69.41;98478.91;125720;1093;103145;-75
2021/07/02 03:33:00;;;;;;;17.67;8.00;;;;;;;16.90;69.66;98471.52;125714;1093;102937;-74
2021/07/02 03:35:29;;;;;;;17.60;7.80;;;;;;;16.90;69.79;98476.03;125748;1093;102909;-73
2021/07/02 03:38:05;;;;;;;21.07;8.50;;;;;;;16.91;69.76;98466.97;125672;1092;103036;-74
2021/07/02 03:40:33;;;;;;;19.13;8.80;;;;;;;16.90;69.57;98465.29;125725;1093;103010;-74
2021/07/02 03:43:02;;;;;;;19.20;8.17;;;;;;;16.90;69.90;98476.89;125627;1093;103032;-74
2021/07/02 03:45:30;;;;;;;17.80;8.50;;;;;;;16.89;69.59;98468.98;125924;1093;101978;-74
2021/07/02 03:48:04;;;;;;;23.00;8.73;;;;;;;16.88;69.49;98478.05;125665;1093;103406;-74
2021/07/02 03:50:35;;;;;;;20.87;9.00;;;;;;;16.89;69.57;98466.30;125650;1093;103001;-74
2021/07/02 03:53:07;;;;;;;16.10;8.53;;;;;;;16.88;69.50;98464.61;125713;1092;103093;-73
2021/07/02 03:55:35;;;;;;;17.33;8.60;;;;;;;16.88;69.92;98473.53;125657;1092;103044;-74
2021/07/02 03:58:07;;;;;;;17.00;9.53;;;;;;;16.89;69.78;98480.58;125678;1093;103124;-74
2021/07/02 04:00:35;;;;;;;21.73;8.57;;;;;;;16.88;69.61;98484.27;125668;1092;102933;-74
2021/07/02 04:03:04;;;;;;;16.73;8.50;;;;;;;16.89;69.88;98485.95;125699;1092;102994;-75
2021/07/02 04:05:32;;;;;;;21.20;9.73;;;;;;;16.89;69.66;98475.20;125741;1092;102905;-75
2021/07/02 04:08:00;;;;;;;20.83;9.40;;;;;;;16.89;69.69;98480.58;125747;1093;103018;-74
2021/07/02 04:10:29;;;;;;;19.10;9.23;;;;;;;16.90;69.96;98482.27;125733;1093;102920;-73
2021/07/02 04:12:57;;;;;;;17.93;9.20;;;;;;;16.91;69.68;98489.28;125732;1093;103470;-74
2021/07/02 04:15:26;;;;;;;18.20;9.13;;;;;;;16.94;69.82;98494.32;125610;1093;102923;-74
2021/07/02 04:17:54;;;;;;;20.80;9.60;;;;;;;16.96;69.94;98489.66;125653;1093;103028;-75
2021/07/02 04:20:25;;;;;;;19.77;9.37;;;;;;;16.98;70.02;98496.70;125716;1093;103011;-74
2021/07/02 04:22:56;;;;;;;19.47;9.13;;;;;;;16.99;70.10;98501.94;125656;1092;103108;-74
2021/07/02 04:25:24;;;;;;;19.10;9.63;;;;;;;17.01;69.68;98512.50;125679;1093;102938;-73
2021/07/02 04:27:52;;;;;;;21.73;9.57;;;;;;;17.02;70.07;98500.75;125711;1093;103004;-75
2021/07/02 04:30:21;;;;;;;19.63;9.00;;;;;;;17.07;69.99;98509.14;125774;1092;103434;-73
2021/07/02 04:32:49;;;;;;;16.83;8.83;;;;;;;17.08;70.05;98510.83;125674;1094;103090;-73
2021/07/02 04:35:18;;;;;;;17.90;8.67;;;;;;;17.08;69.84;98506.31;125657;1093;102911;-74
2021/07/02 04:37:46;;;;;;;20.50;9.10;;;;;;;17.09;69.81;98517.88;125666;1093;103008;-75
2021/07/02 04:40:15;;;;;;;21.27;10.13;;;;;;;17.11;69.89;98510.50;125661;1092;103045;-74
2021/07/02 04:42:44;;;;;;;17.53;8.57;;;;;;;17.15;69.75;98514.53;125763;1093;103007;-74
2021/07/02 04:45:13;;;;;;;16.87;8.93;;;;;;;17.18;69.84;98519.57;125636;1093;103103;-74
2021/07/02 04:47:42;;;;;;;19.60;8.90;;;;;;;17.24;69.83;98528.80;125782;1092;103016;-75
2021/07/02 04:50:10;;;;;;;18.67;8.23;;;;;;;17.30;69.94;98538.06;125734;1093;103065;-74
2021/07/02 04:52:39;;;;;;;19.93;8.47;;;;;;;17.35;70.14;98541.91;125727;1093;103009;-74
2021/07/02 04:55:10;;;;;;;18.03;7.97;;;;;;;17.41;70.11;98540.39;125699;1093;102939;-76
2021/07/02 04:57:39;;;;;;;17.07;7.97;;;;;;;17.47;69.81;98542.41;125682;1093;103131;-74
2021/07/02 05:00:13;;;;;;;17.57;7.83;;;;;;;17.54;69.81;98550.63;125680;1093;103163;-74
2021/07/02 05:02:45;;;;;;;17.03;7.80;;;;;;;17.61;70.48;98553.49;125735;1093;103090;-72
2021/07/02 05:05:13;;;;;;;17.40;7.97;;;;;;;17.65;70.46;98554.84;125650;1093;102914;-75
2021/07/02 05:07:41;;;;;;;19.30;9.13;;;;;;;17.72;70.42;98555.84;125726;1093;103418;-74
2021/07/02 05:10:13;;;;;;;18.00;8.10;;;;;;;17.77;70.46;98558.01;125710;1093;102942;-75
2021/07/02 05:12:41;;;;;;;17.93;8.17;;;;;;;17.85;70.12;98560.69;125686;1092;102913;-78
2021/07/02 05:15:10;;;;;;;16.87;8.53;;;;;;;17.91;70.36;98556.46;126981;1093;102917;-75
2021/07/02 05:17:41;;;;;;;18.83;8.80;;;;;;;17.95;70.45;98566.70;125871;1093;102912;-75
2021/07/02 05:20:10;;;;;;;17.50;8.13;;;;;;;18.05;70.48;98553.11;125651;1093;103122;-75
2021/07/02 05:22:39;;;;;;;19.03;7.70;;;;;;;18.11;70.20;98565.02;125771;1093;103009;-75
2021/07/02 05:25:10;;;;;;;15.63;7.03;;;;;;;18.17;69.86;98564.33;125673;1093;102991;-74
2021/07/02 05:27:38;;;;;;;14.80;7.33;;;;;;;18.23;70.30;98576.25;126712;1093;102928;-75
2021/07/02 05:30:13;;;;;;;14.20;7.20;;;;;;;18.26;70.02;98579.45;125802;1092;102919;-75
2021/07/02 05:32:42;;;;;;;17.17;7.53;;;;;;;18.34;70.02;98583.95;125657;1093;103077;-73
2021/07/02 05:35:11;;;;;;;14.03;7.13;;;;;;;18.43;70.10;98579.38;126297;1093;102350;-76
2021/07/02 05:37:45;;;;;;;15.07;7.20;;;;;;;18.48;69.82;98582.38;125627;1093;103012;-74
2021/07/02 05:40:16;;;;;;;14.27;6.87;;;;;;;18.54;70.28;98573.61;125674;1093;103361;-74
2021/07/02 05:42:46;;;;;;;19.17;7.27;;;;;;;18.60;69.88;98585.52;126255;1092;103057;-74
2021/07/02 05:45:14;;;;;;;17.87;6.97;;;;;;;18.70;70.23;98591.55;125689;1093;103052;-75
2021/07/02 05:47:49;;;;;;;15.53;6.83;;;;;;;18.80;70.30;98585.93;125699;1093;103436;-75
2021/07/02 05:50:22;;;;;;;14.50;6.67;;;;;;;18.97;70.25;98573.23;125651;1093;103121;-75
2021/07/02 05:52:55;;;;;;;14.20;6.67;;;;;;;19.16;70.09;98581.88;125648;1093;103062;-75
2021/07/02 05:55:27;;;;;;;15.43;6.30;;;;;;;19.32;70.05;98579.08;125649;1093;102912;-74
2021/07/02 05:57:55;;;;;;;15.77;6.47;;;;;;;19.40;69.98;98582.70;125703;1093;103100;-74
2021/07/02 06:00:25;;;;;;;15.67;6.93;;;;;;;19.42;69.96;98581.52;125678;1091;103063;-75
2021/07/02 06:02:53;;;;;;;15.40;6.77;;;;;;;19.41;69.73;98579.84;126542;1092;103034;-75
2021/07/02 06:05:24;;;;;;;15.77;6.20;;;;;;;19.40;69.95;98580.86;125672;1093;102994;-79
2021/07/02 06:07:56;;;;;;;16.20;7.20;;;;;;;19.37;69.77;98583.06;125640;1092;103426;-75
2021/07/02 06:10:30;;;;;;;17.90;7.23;;;;;;;19.37;69.66;98585.77;125637;1093;103032;-75
2021/07/02 06:13:01;;;;;;;13.95;6.45;;;;;;;19.36;69.61;98581.42;125685;1093;102997;-73
2021/07/02 06:15:32;;;;;;;15.90;6.97;;;;;;;19.37;69.75;98575.83;125619;1093;103019;-74
2021/07/02 06:18:10;;;;;;;16.57;6.70;;;;;;;19.43;69.42;98568.86;125687;1093;103158;-74
2021/07/02 06:20:39;;;;;;;19.60;7.17;;;;;;;19.53;69.62;98569.45;125716;1093;103001;-74
2021/07/02 06:23:07;;;;;;;22.47;7.47;;;;;;;19.69;69.62;98571.17;126358;1093;102988;-75
2021/07/02 06:25:36;;;;;;;21.17;6.80;;;;;;;19.88;69.62;98579.78;125685;1092;103036;-73
2021/07/02 06:28:04;;;;;;;15.13;6.50;;;;;;;20.04;69.58;98574.22;126322;1093;103082;-72
2021/07/02 06:30:32;;;;;;;16.07;7.20;;;;;;;20.10;69.56;98569.11;125701;1093;102948;-74
2021/07/02 06:33:03;;;;;;;14.90;6.55;;;;;;;20.15;69.58;98577.49;125660;1095;103020;-72
2021/07/02 06:35:32;;;;;;;15.73;7.37;;;;;;;20.24;69.56;98573.69;125711;1092;103012;-73
2021/07/02 06:38:03;;;;;;;14.50;6.33;;;;;;;20.44;69.58;98568.55;125715;1093;102919;-80
2021/07/02 06:40:32;;;;;;;17.03;7.23;;;;;;;20.69;69.09;98568.22;125686;1093;103019;-74
2021/07/02 06:43:01;;;;;;;17.27;7.07;;;;;;;20.90;69.44;98567.45;125653;1093;102907;-75
2021/07/02 06:45:32;;;;;;;15.43;7.20;;;;;;;21.03;69.23;98568.64;125696;1093;103004;-71
2021/07/02 06:48:05;;;;;;;15.67;6.53;;;;;;;21.10;69.22;98570.38;125716;1093;102913;-72
2021/07/02 06:50:38;;;;;;;16.40;7.10;;;;;;;21.09;69.08;98571.40;125680;1094;103122;-73
2021/07/02 06:53:07;;;;;;;16.37;6.80;;;;;;;21.14;69.05;98565.44;125667;1095;103000;-71
2021/07/02 06:55:35;;;;;;;14.27;6.80;;;;;;;21.16;68.60;98560.67;125717;1095;102913;-71
2021/07/02 06:58:04;;;;;;;14.43;7.27;;;;;;;21.25;68.87;98562.20;125663;1095;102968;-70
2021/07/02 07:00:39;;;;;;;17.30;7.80;;;;;;;21.42;68.58;98561.94;125692;1097;102916;-70
2021/07/02 07:03:10;;;;;;;15.25;7.00;;;;;;;21.70;68.68;98558.45;125693;1092;102905;-70
2021/07/02 07:05:41;;;;;;;14.93;6.53;;;;;;;21.84;68.65;98559.38;125635;1093;103039;-70
2021/07/02 07:08:10;;;;;;;16.17;6.67;;;;;;;22.34;68.06;98553.02;125664;1093;102916;-71
2021/07/02 07:10:38;;;;;;;13.37;5.90;;;;;;;23.25;67.52;98559.21;125658;1093;102936;-72
2021/07/02 07:13:07;;;;;;;13.57;5.93;;;;;;;23.92;67.23;98556.48;126372;1093;102929;-71
2021/07/02 07:15:36;;;;;;;9.47;5.80;;;;;;;24.95;67.11;98556.81;125719;1093;103055;-70
2021/07/02 07:18:05;;;;;;;13.03;5.17;;;;;;;26.05;67.01;98545.73;125688;1093;102994;-71
2021/07/02 07:20:33;;;;;;;10.83;5.23;;;;;;;26.97;66.67;98544.88;125686;1093;102941;-71
2021/07/02 07:23:04;;;;;;;9.27;5.10;;;;;;;27.90;66.07;98541.73;125684;1093;103105;-70
2021/07/02 07:25:33;;;;;;;10.93;4.60;;;;;;;28.51;65.66;98546.08;125719;1093;102994;-70
2021/07/02 07:28:01;;;;;;;12.93;4.83;;;;;;;29.36;65.89;98539.98;125661;1093;102934;-71
2021/07/02 07:30:29;;;;;;;13.50;5.10;;;;;;;30.04;65.94;98542.77;125674;1093;103182;-72
2021/07/02 07:32:58;;;;;;;11.00;4.87;;;;;;;30.50;66.18;98547.20;125708;1093;103071;-72
2021/07/02 07:37:59;;;;;;;9.80;4.60;;;;;;;30.54;65.38;98545.61;125721;1093;103421;-70
2021/07/02 07:40:31;;;;;;;14.10;4.90;;;;;;;29.71;65.44;98548.00;125717;1093;103032;-71
2021/07/02 07:43:00;;;;;;;8.05;4.90;;;;;;;29.90;64.16;98541.42;125671;1093;103061;-70
2021/07/02 07:45:28;;;;;;;14.70;5.63;;;;;;;29.82;64.78;98540.76;125691;1097;102945;-70
2021/07/02 07:47:59;;;;;;;12.50;5.07;;;;;;;29.30;64.61;98547.30;125645;1093;102943;-70
2021/07/02 07:50:41;;;;;;;11.10;5.07;;;;;;;28.81;64.56;98539.58;125695;1091;102935;-71
2021/07/02 07:53:12;;;;;;;12.10;4.97;;;;;;;28.21;63.85;98541.60;125678;1092;103023;-70
2021/07/02 07:55:40;;;;;;;9.77;5.03;;;;;;;27.85;63.05;98546.23;125660;1092;102933;-73
2021/07/02 07:58:08;;;;;;;12.50;5.23;;;;;;;28.34;62.07;98544.09;125726;1093;102913;-72
2021/07/02 08:00:37;;;;;;;11.57;5.00;;;;;;;27.67;62.33;98536.25;125720;1093;103124;-72
2021/07/02 08:03:05;;;;;;;9.77;4.97;;;;;;;27.23;62.48;98537.34;125747;1092;102917;-71
2021/07/02 08:05:34;;;;;;;7.90;5.10;;;;;;;27.09;62.05;98539.45;125760;1092;102948;-71
2021/07/02 08:08:06;;;;;;;13.28;5.53;;;;;;;27.37;61.25;98540.69;125681;1093;102991;-77
2021/07/02 08:10:34;;;;;;;12.10;5.17;;;;;;;27.81;61.02;98539.58;125709;1093;103090;-70
2021/07/02 08:13:05;;;;;;;13.47;5.87;;;;;;;28.49;61.35;98546.30;125646;1093;103483;-71
2021/07/02 08:15:33;;;;;;;11.77;5.13;;;;;;;28.38;61.12;98541.69;125679;1093;102940;-72
2021/07/02 08:18:02;;;;;;;16.20;5.83;;;;;;;28.63;60.30;98546.85;125826;1093;103022;-72
2021/07/02 08:20:31;;;;;;;11.20;5.23;;;;;;;28.27;60.40;98548.84;125657;1092;103191;-71
2021/07/02 08:22:59;;;;;;;11.73;5.40;;;;;;;27.90;60.53;98557.29;125653;1093;102938;-71
2021/07/02 08:25:28;;;;;;;15.40;5.77;;;;;;;27.70;60.39;98563.95;125600;1093;103007;-72
2021/07/02 08:30:45;;;;;;;11.87;6.33;;;;;;;27.64;59.35;98554.78;125665;1093;102959;-73
2021/07/02 08:33:17;;;;;;;12.83;5.57;;;;;;;27.82;59.42;98555.75;125665;1093;103068;-73
2021/07/02 08:35:52;;;;;;;10.23;5.33;;;;;;;28.27;59.38;98550.77;125637;1093;102969;-72
2021/07/02 08:38:20;;;;;;;10.98;5.55;;;;;;;28.68;59.24;98551.61;125641;1092;103010;-72
2021/07/02 08:40:52;;;;;;;9.00;4.57;;;;;;;29.10;58.28;98550.50;125659;1093;102967;-72
2021/07/02 08:43:25;;;;;;;9.93;4.90;;;;;;;29.39;58.45;98534.89;125682;1093;102911;-73
2021/07/02 08:45:57;;;;;;;11.90;5.20;;;;;;;29.32;58.60;98538.85;125611;1093;102913;-70
2021/07/02 08:48:27;;;;;;;10.77;4.90;;;;;;;29.11;58.19;98536.59;125767;1092;102932;-72
2021/07/02 08:50:56;;;;;;;11.87;5.50;;;;;;;29.40;57.73;98532.97;126178;1092;103008;-73
2021/07/02 08:53:28;;;;;;;9.77;5.10;;;;;;;29.50;57.13;98537.81;125659;1093;102908;-71
2021/07/02 08:55:58;;;;;;;11.33;4.43;;;;;;;29.56;56.69;98548.59;125687;1093;102941;-72
2021/07/02 08:58:32;;;;;;;7.33;4.43;;;;;;;29.93;57.14;98538.17;125618;1093;103054;-73
2021/07/02 09:01:07;;;;;;;12.78;5.23;;;;;;;30.22;57.24;98535.31;125727;1096;103017;-72
2021/07/02 09:03:40;;;;;;;11.53;4.90;;;;;;;30.25;56.75;98537.55;125653;1095;102998;-73
2021/07/02 09:06:08;;;;;;;22.75;5.25;;;;;;;29.64;56.98;98535.56;125653;1095;103065;-72
2021/07/02 09:08:39;;;;;;;10.17;4.17;;;;;;;28.95;56.02;98542.84;125631;1093;102917;-71
2021/07/02 09:11:31;;;;;;;9.83;4.73;;;;;;;28.37;56.31;98548.22;125595;1092;104066;-72
2021/07/02 09:14:01;;;;;;;10.40;4.47;;;;;;;27.78;55.42;98558.11;125651;1093;103032;-73
2021/07/02 09:16:40;;;;;;;12.20;4.70;;;;;;;27.24;55.56;98544.47;127643;1094;100739;-71
2021/07/02 09:19:23;;;;;;;13.33;4.37;;;;;;;26.90;55.61;98555.86;126221;1093;102913;-73
2021/07/02 09:21:52;;;;;;;10.57;4.37;;;;;;;26.61;55.11;98546.58;125625;1094;103397;-71
2021/07/02 09:24:39;;;;;;;9.40;4.80;;;;;;;26.35;55.21;98553.19;125673;1093;102961;-71
2021/07/02 09:27:29;;;;;;;9.73;4.63;;;;;;;26.05;55.00;98546.55;125542;1094;102912;-71
2021/07/02 09:30:03;;;;;;;6.53;4.20;;;;;;;25.82;54.62;98547.20;125581;1093;102899;-71
2021/07/02 09:32:42;;;;;;;11.20;4.03;;;;;;;25.65;54.52;98555.95;125625;1094;102925;-72
2021/07/02 09:35:14;;;;;;;8.07;4.00;;;;;;;25.50;54.12;98544.55;125638;1094;102943;-72
2021/07/02 09:37:51;;;;;;;10.87;4.30;;;;;;;25.40;54.23;98545.84;125487;1093;102931;-71
2021/07/02 09:40:32;;;;;;;8.95;4.00;;;;;;;25.25;54.38;98548.06;125486;1093;103081;-72
2021/07/02 09:43:06;;;;;;;12.23;4.73;;;;;;;25.02;53.76;98554.08;125525;1095;102982;-71
2021/07/02 09:45:46;;;;;;;14.53;4.77;;;;;;;25.01;54.26;98555.13;125636;1092;102991;-72
2021/07/02 09:48:18;;;;;;;7.93;3.83;;;;;;;25.05;54.00;98556.36;125648;1093;102969;-70
2021/07/02 09:50:51;;;;;;;6.37;3.93;;;;;;;25.07;54.28;98552.35;125407;1093;103167;-69
2021/07/02 09:53:27;;;;;;;10.53;3.87;;;;;;;25.21;53.95;98544.94;125349;1096;103047;-70
2021/07/02 09:56:01;;;;;;;7.77;3.77;;;;;;;25.40;54.15;98545.02;125561;1096;102913;-72
2021/07/02 09:58:36;;;;;;;8.87;4.23;;;;;;;25.37;53.89;98538.11;125524;1093;102969;-73
2021/07/02 10:01:09;;;;;;;6.70;3.53;;;;;;;25.27;53.72;98535.05;125550;1093;103439;-70
2021/07/02 10:03:40;;;;;;;9.83;3.70;;;;;;;25.16;53.84;98543.94;125571;1091;103062;-74
2021/07/02 10:06:25;;;;;;;9.23;3.70;;;;;;;25.05;53.57;98538.13;125746;1093;103084;-69
2021/07/02 10:09:00;;;;;;;8.03;3.70;;;;;;;24.94;53.66;98538.83;125699;1093;102935;-70
2021/07/02 10:11:29;;;;;;;5.00;3.80;;;;;;;24.82;53.65;98542.26;125677;1093;102913;-70
2021/07/02 10:13:58;;;;;;;9.30;4.07;;;;;;;24.77;53.60;98542.07;125694;1092;102941;-70
2021/07/02 10:16:27;;;;;;;7.87;3.87;;;;;;;24.75;53.54;98541.45;125659;1093;103073;-69
2021/07/02 10:19:01;;;;;;;14.60;4.80;;;;;;;24.75;53.38;98541.45;125696;1093;103383;-70
2021/07/02 10:21:30;;;;;;;5.73;3.83;;;;;;;24.72;53.15;98543.75;125663;1093;102955;-71
2021/07/02 10:24:08;;;;;;;10.23;3.50;;;;;;;24.60;53.38;98554.45;125727;1093;102952;-71
2021/07/02 10:26:37;;;;;;;5.60;3.70;;;;;;;24.46;53.51;98548.23;125607;1092;102952;-71
2021/07/02 10:29:08;;;;;;;5.03;3.07;;;;;;;24.33;53.34;98546.41;125618;1092;102930;-71
2021/07/02 10:31:37;;;;;;;8.53;3.70;;;;;;;24.21;53.51;98547.06;125709;1093;103020;-69
2021/07/02 10:34:10;;;;;;;7.27;3.37;;;;;;;24.10;53.26;98542.27;125696;1091;102916;-70
2021/07/02 10:36:41;;;;;;;3.85;3.13;;;;;;;24.00;52.99;98548.16;125747;1093;102911;-69
2021/07/02 10:39:33;;;;;;;8.80;4.15;;;;;;;23.88;53.48;98547.09;125669;1092;102928;-71
2021/07/02 10:42:13;;;;;;;16.80;6.87;;;;;;;23.77;53.54;98541.27;125698;1093;102918;-70
2021/07/02 10:44:54;;;;;;;12.43;5.30;;;;;;;23.63;53.01;98532.31;125650;1093;103010;-71
2021/07/02 10:47:25;;;;;;;10.40;3.80;;;;;;;23.55;53.06;98540.66;125599;1093;103062;-69
2021/07/02 10:49:54;;;;;;;7.60;3.93;;;;;;;23.49;53.22;98533.34;125624;1093;103065;-70
2021/07/02 10:52:29;;;;;;;8.47;3.43;;;;;;;23.47;53.55;98544.39;125647;1092;102945;-71
2021/07/02 10:54:59;;;;;;;6.10;3.63;;;;;;;23.48;53.18;98542.53;125682;1092;103058;-69
2021/07/02 10:57:27;;;;;;;8.70;4.20;;;;;;;23.49;53.42;98536.88;125683;1092;102927;-70
2021/07/02 11:00:03;;;;;;;8.53;3.40;;;;;;;23.48;53.37;98535.21;125617;1092;102997;-70
2021/07/02 11:02:32;;;;;;;7.07;3.57;;;;;;;23.42;53.09;98540.65;125629;1092;103004;-70
2021/07/02 11:05:03;;;;;;;6.47;3.30;;;;;;;23.36;53.06;98528.77;125653;1093;104463;-70
2021/07/02 11:07:32;;;;;;;7.60;3.60;;;;;;;23.33;53.03;98529.17;125574;1093;103085;-70
2021/07/02 11:10:09;;;;;;;5.43;3.27;;;;;;;23.28;53.07;98529.78;125677;1093;103250;-72
2021/07/02 11:12:44;;;;;;;5.90;3.63;;;;;;;23.22;53.04;98517.06;125620;1093;103057;-70
2021/07/02 11:15:18;;;;;;;7.10;3.80;;;;;;;23.21;52.97;98526.22;125653;1093;102913;-70
2021/07/02 11:18:12;;;;;;;6.30;3.50;;;;;;;23.19;53.37;98523.69;125697;1093;103031;-71
2021/07/02 11:20:43;;;;;;;5.80;3.73;;;;;;;23.22;53.49;98527.92;125647;1092;103094;-71
2021/07/02 11:23:18;;;;;;;8.00;4.00;;;;;;;23.21;53.05;98518.08;125685;1093;102933;-70
2021/07/02 11:25:56;;;;;;;8.63;4.40;;;;;;;23.23;53.11;98529.56;125677;1092;103096;-71
2021/07/02 11:28:45;;;;;;;9.47;3.80;;;;;;;23.24;53.42;98522.27;125794;1093;103441;-71
2021/07/02 11:31:14;;;;;;;7.83;3.80;;;;;;;23.17;53.01;98523.06;125835;1091;103019;-70
2021/07/02 11:33:44;;;;;;;6.07;4.10;;;;;;;23.13;53.40;98521.80;125667;1093;103204;-70